Time;durP1;ratioP1;P1;durP2;ratioP2;P2;SDS_P1;SDS_P2;PMS_P1;PMS_P2;Temp;Humidity;BMP_temperature;BMP_pressure;BME280_temperature;BME280_humidity;BME280_pressure;Samples;Min_cycle;Max_cycle;Signal;HPM_P1;HPM_P2
2022/08/14 00:00:01;;;;;;;0.60;0.60;;;21.60;82.30;;;;;;6186297;23;20108;-88
2022/08/14 00:02:28;;;;;;;0.30;0.30;;;21.60;82.80;;;;;;6193839;23;20021;-88
2022/08/14 00:04:57;;;;;;;0.68;0.40;;;21.50;83.40;;;;;;6187660;23;20017;-88
2022/08/14 00:07:24;;;;;;;0.40;0.40;;;21.50;83.90;;;;;;6187164;23;20056;-87
2022/08/14 00:09:53;;;;;;;0.57;0.47;;;21.50;84.00;;;;;;6186362;23;20024;-87
2022/08/14 00:12:28;;;;;;;0.70;0.60;;;21.50;84.60;;;;;;6187005;23;20016;-88
2022/08/14 00:15:00;;;;;;;0.38;0.38;;;21.50;85.10;;;;;;6185881;23;20017;-89
2022/08/14 00:17:28;;;;;;;0.50;0.30;;;21.50;85.60;;;;;;6186115;23;20017;-89
2022/08/14 00:19:57;;;;;;;0.32;0.32;;;21.40;86.60;;;;;;6184393;23;20071;-90
2022/08/14 00:22:25;;;;;;;0.63;0.47;;;21.40;87.20;;;;;;6187464;23;20023;-87
2022/08/14 00:25:12;;;;;;;0.68;0.50;;;21.40;88.40;;;;;;6188249;23;20103;-87
2022/08/14 00:27:41;;;;;;;0.68;0.50;;;21.30;90.00;;;;;;6185392;23;20047;-88
2022/08/14 00:30:09;;;;;;;0.38;0.38;;;21.30;90.10;;;;;;6183764;23;20070;-92
2022/08/14 00:32:40;;;;;;;0.40;0.40;;;21.30;90.50;;;;;;6184532;23;20035;-90
2022/08/14 00:35:22;;;;;;;0.53;0.40;;;21.30;90.90;;;;;;6186605;23;20020;-88
2022/08/14 00:38:09;;;;;;;0.65;0.50;;;21.30;91.70;;;;;;6195107;23;20051;-88
2022/08/14 00:40:36;;;;;;;0.63;0.40;;;21.30;92.70;;;;;;6187222;23;20406;-89
2022/08/14 00:43:03;;;;;;;0.63;0.40;;;21.20;93.40;;;;;;6184416;23;20021;-92
2022/08/14 00:45:30;;;;;;;0.75;0.60;;;21.20;94.60;;;;;;6183537;23;20023;-87
2022/08/14 00:47:57;;;;;;;0.75;0.65;;;21.10;95.50;;;;;;6185206;23;20021;-90
2022/08/14 00:50:29;;;;;;;0.50;0.50;;;21.10;96.90;;;;;;6184805;23;20458;-87
2022/08/14 00:52:56;;;;;;;0.50;0.40;;;21.10;98.40;;;;;;6185130;23;20020;-90
2022/08/14 00:55:23;;;;;;;0.80;0.40;;;21.10;99.50;;;;;;6184770;23;20028;-92
2022/08/14 00:58:29;;;;;;;0.93;0.50;;;21.00;99.90;;;;;;6185974;23;20024;-91
2022/08/14 01:00:38;;;;;;;1.52;0.73;;;21.00;99.90;;;;;;6188787;23;20032;-89
2022/08/14 01:03:18;;;;;;;0.75;0.60;;;21.00;99.90;;;;;;6188418;23;20095;-88
2022/08/14 01:05:48;;;;;;;0.88;0.50;;;21.00;99.90;;;;;;6184624;23;20021;-87
2022/08/14 01:08:22;;;;;;;1.05;0.90;;;21.00;99.90;;;;;;6186133;23;20044;-88
2022/08/14 01:11:12;;;;;;;1.10;0.80;;;20.90;99.90;;;;;;6188555;23;20083;-91
2022/08/14 01:13:45;;;;;;;0.75;0.70;;;20.90;99.90;;;;;;6183793;23;20082;-85
2022/08/14 01:16:23;;;;;;;0.77;0.73;;;20.90;99.90;;;;;;6184162;23;20023;-86
2022/08/14 01:21:44;;;;;;;1.20;0.98;;;20.80;99.90;;;;;;6188497;23;20032;-88
2022/08/14 01:24:20;;;;;;;0.77;0.77;;;20.80;99.90;;;;;;6186220;23;20021;-88
2022/08/14 01:27:00;;;;;;;1.45;1.05;;;20.70;99.90;;;;;;6186081;23;20032;-87
2022/08/14 01:29:34;;;;;;;0.82;0.75;;;20.70;99.90;;;;;;6181445;23;20024;-86
2022/08/14 05:45:34;;;;;;;0.70;0.70;;;18.40;99.90;;;;;;6225106;23;20020;-79
2022/08/14 05:48:03;;;;;;;0.88;0.88;;;18.40;99.90;;;;;;6161439;23;20024;-79
2022/08/14 05:50:37;;;;;;;1.00;0.88;;;18.40;99.90;;;;;;6162067;23;20078;-79
2022/08/14 05:53:03;;;;;;;1.30;1.15;;;18.50;99.90;;;;;;6235145;23;20058;-79
2022/08/14 05:55:31;;;;;;;1.80;1.08;;;18.50;99.90;;;;;;6208884;23;20403;-79
2022/08/14 05:58:06;;;;;;;1.52;1.00;;;18.60;99.90;;;;;;6235278;23;20093;-78
2022/08/14 06:00:37;;;;;;;1.83;1.13;;;18.70;99.90;;;;;;6207834;23;20024;-80
2022/08/14 06:03:07;;;;;;;1.23;1.00;;;18.70;99.90;;;;;;6209754;23;20086;-78
2022/08/14 06:05:34;;;;;;;1.02;0.95;;;18.80;99.90;;;;;;6183476;23;20024;-78
2022/08/14 06:08:04;;;;;;;1.23;0.93;;;18.90;99.90;;;;;;6235299;23;20620;-78
2022/08/14 06:10:48;;;;;;;1.23;0.95;;;19.00;99.90;;;;;;6235030;23;20079;-79
2022/08/14 06:13:15;;;;;;;1.13;0.90;;;19.10;99.90;;;;;;6209472;23;20020;-79
2022/08/14 06:15:43;;;;;;;1.08;0.98;;;19.10;99.90;;;;;;6207918;23;20046;-79
2022/08/14 06:18:11;;;;;;;1.30;1.02;;;19.20;99.90;;;;;;6209544;23;20098;-79
2022/08/14 06:20:43;;;;;;;0.83;0.70;;;19.20;99.90;;;;;;6185373;23;20020;-78
2022/08/14 06:23:11;;;;;;;0.73;0.70;;;19.30;99.90;;;;;;6235444;23;20032;-79
2022/08/14 06:25:40;;;;;;;1.15;0.90;;;19.40;99.90;;;;;;6235323;23;20020;-79
2022/08/14 06:28:07;;;;;;;0.95;0.85;;;19.50;99.90;;;;;;6209668;23;20028;-79
2022/08/14 06:30:54;;;;;;;0.85;0.85;;;19.50;99.90;;;;;;6170211;23;20274;-78
2022/08/14 06:33:21;;;;;;;1.02;0.80;;;19.60;99.90;;;;;;6235002;23;20060;-79
2022/08/14 06:35:48;;;;;;;1.00;0.90;;;19.70;99.90;;;;;;6209083;23;20196;-78
2022/08/14 06:38:19;;;;;;;1.23;0.90;;;19.80;99.90;;;;;;6159888;23;20099;-79
2022/08/14 06:40:49;;;;;;;0.90;0.90;;;19.90;99.90;;;;;;6235493;23;20368;-79
2022/08/14 06:43:19;;;;;;;1.20;1.02;;;19.90;99.90;;;;;;6185414;23;20463;-79
2022/08/14 06:45:47;;;;;;;1.10;1.00;;;20.00;99.90;;;;;;6207040;23;20063;-79
2022/08/14 06:48:22;;;;;;;1.40;1.20;;;20.10;99.90;;;;;;6235196;23;20020;-78
2022/08/14 06:50:50;;;;;;;1.48;0.90;;;20.20;99.90;;;;;;6209045;23;20447;-78
2022/08/14 06:53:18;;;;;;;1.33;0.95;;;20.20;99.90;;;;;;6208563;23;20070;-78
2022/08/14 06:55:46;;;;;;;1.25;1.05;;;20.30;99.90;;;;;;6209163;23;20026;-79
2022/08/14 06:58:26;;;;;;;0.95;0.88;;;20.40;99.90;;;;;;6211642;23;20131;-77
2022/08/14 07:06:29;;;;;;;0.80;0.80;;;20.60;99.90;;;;;;6234802;23;20020;-79
2022/08/14 07:09:13;;;;;;;1.20;1.08;;;20.70;99.90;;;;;;6214830;23;20086;-79
2022/08/14 07:11:48;;;;;;;1.42;1.27;;;20.80;99.90;;;;;;6166553;23;20027;-79
2022/08/14 07:14:15;;;;;;;1.63;1.25;;;20.90;99.90;;;;;;6236884;23;20024;-80
2022/08/14 07:16:42;;;;;;;1.10;0.85;;;21.00;99.90;;;;;;6236064;23;20463;-79
2022/08/14 07:19:08;;;;;;;1.23;1.00;;;21.10;99.90;;;;;;6210599;23;20051;-79
2022/08/14 07:21:36;;;;;;;0.60;0.60;;;21.10;99.90;;;;;;6237488;23;20044;-79
2022/08/14 07:24:03;;;;;;;0.73;0.73;;;21.20;99.90;;;;;;6236678;23;20047;-79
2022/08/14 07:26:35;;;;;;;1.20;0.93;;;21.30;99.90;;;;;;6211430;23;20111;-79
2022/08/14 07:29:04;;;;;;;0.60;0.60;;;21.40;99.90;;;;;;6236389;23;20024;-79
2022/08/14 07:31:32;;;;;;;0.60;0.50;;;21.50;99.90;;;;;;6236596;23;20074;-79
2022/08/14 07:33:59;;;;;;;1.00;0.90;;;21.60;99.90;;;;;;6210029;23;20066;-79
2022/08/14 07:36:29;;;;;;;0.60;0.60;;;21.60;99.90;;;;;;6236812;23;20099;-79
2022/08/14 07:39:00;;;;;;;0.43;0.43;;;21.70;99.90;;;;;;6209831;23;20455;-79
2022/08/14 07:41:37;;;;;;;0.73;0.63;;;21.80;99.90;;;;;;6212867;23;20031;-79
2022/08/14 07:44:04;;;;;;;0.47;0.47;;;21.90;99.90;;;;;;6236978;23;20086;-79
2022/08/14 07:46:51;;;;;;;0.50;0.50;;;22.00;99.90;;;;;;6213976;23;20026;-79
2022/08/14 07:49:18;;;;;;;0.68;0.65;;;22.00;99.90;;;;;;6213669;23;20020;-78
2022/08/14 07:51:45;;;;;;;0.80;0.75;;;22.20;99.90;;;;;;6213749;23;20028;-80
2022/08/14 07:54:17;;;;;;;0.50;0.50;;;22.20;99.90;;;;;;6191460;23;20107;-79
2022/08/14 07:56:57;;;;;;;0.40;0.40;;;22.30;99.90;;;;;;6217242;23;20462;-79
2022/08/14 07:59:27;;;;;;;0.75;0.50;;;22.40;99.90;;;;;;6214169;23;20094;-79
2022/08/14 08:02:10;;;;;;;0.40;0.40;;;22.50;99.90;;;;;;6195296;23;20484;-78
2022/08/14 08:04:49;;;;;;;0.75;0.68;;;22.60;99.90;;;;;;6215363;23;20020;-79
2022/08/14 08:07:21;;;;;;;0.52;0.52;;;22.60;99.90;;;;;;6191793;23;20020;-79
2022/08/14 08:09:49;;;;;;;0.80;0.60;;;22.70;99.90;;;;;;6213836;23;20028;-78
2022/08/14 08:12:19;;;;;;;0.73;0.60;;;22.80;99.90;;;;;;6214156;23;20020;-79
2022/08/14 08:14:50;;;;;;;0.57;0.57;;;22.90;99.90;;;;;;6213272;23;20039;-79
2022/08/14 08:17:29;;;;;;;0.60;0.60;;;23.00;99.90;;;;;;6216111;23;20020;-79
2022/08/14 08:20:05;;;;;;;0.47;0.47;;;23.10;99.90;;;;;;6215479;23;20027;-79
2022/08/14 08:22:37;;;;;;;0.73;0.73;;;23.20;99.90;;;;;;6215398;23;20406;-78
2022/08/14 08:25:05;;;;;;;0.40;0.40;;;23.30;99.90;;;;;;6240060;23;20020;-79
2022/08/14 08:27:39;;;;;;;0.60;0.60;;;23.40;99.90;;;;;;6241128;23;20016;-79
2022/08/14 08:30:11;;;;;;;0.50;0.50;;;23.50;99.90;;;;;;6239842;23;20495;-78
2022/08/14 08:32:41;;;;;;;0.63;0.60;;;23.60;99.90;;;;;;6213718;23;20020;-79
2022/08/14 08:35:23;;;;;;;0.93;0.70;;;23.70;99.90;;;;;;6189009;23;20024;-77
2022/08/14 08:37:50;;;;;;;1.30;1.00;;;23.80;99.90;;;;;;6213706;23;20119;-78
2022/08/14 08:40:50;;;;;;;0.98;0.77;;;23.90;99.90;;;;;;6215661;23;20308;-77
2022/08/14 08:43:21;;;;;;;1.30;0.70;;;24.10;99.90;;;;;;6215070;23;20024;-77
2022/08/14 08:45:54;;;;;;;0.70;0.70;;;24.20;99.90;;;;;;6238778;23;20028;-77
2022/08/14 08:48:22;;;;;;;1.00;0.90;;;24.20;99.90;;;;;;6213958;23;20020;-78
2022/08/14 08:51:04;;;;;;;0.60;0.60;;;24.30;99.90;;;;;;6217098;23;20114;-78
2022/08/14 08:53:32;;;;;;;0.75;0.70;;;24.40;99.90;;;;;;6239997;23;20027;-78
2022/08/14 08:55:59;;;;;;;0.50;0.50;;;24.40;99.90;;;;;;6213943;23;20647;-79
2022/08/14 08:58:27;;;;;;;0.57;0.57;;;24.50;99.90;;;;;;6213684;23;20024;-78
2022/08/14 09:00:56;;;;;;;0.77;0.70;;;24.60;99.90;;;;;;6187547;23;20081;-78
2022/08/14 09:03:26;;;;;;;0.70;0.70;;;24.70;99.90;;;;;;6213530;23;20012;-78
2022/08/14 09:05:56;;;;;;;0.55;0.55;;;24.80;99.90;;;;;;6213121;23;20027;-77
2022/08/14 09:08:28;;;;;;;0.80;0.80;;;24.80;99.90;;;;;;6213175;23;20050;-79
2022/08/14 09:11:08;;;;;;;0.52;0.52;;;25.00;99.90;;;;;;6190068;23;20565;-79
2022/08/14 09:13:49;;;;;;;0.30;0.30;;;25.00;99.90;;;;;;6239918;23;20485;-78
2022/08/14 09:16:21;;;;;;;0.30;0.30;;;25.10;99.90;;;;;;6238603;23;20355;-77
2022/08/14 09:18:49;;;;;;;0.65;0.65;;;25.20;99.40;;;;;;6213796;23;20334;-77
2022/08/14 09:21:19;;;;;;;0.57;0.57;;;25.40;99.40;;;;;;6239699;23;20467;-77
2022/08/14 09:23:46;;;;;;;0.93;0.60;;;25.50;98.90;;;;;;6213097;23;20021;-78
2022/08/14 09:26:33;;;;;;;0.50;0.50;;;25.60;98.40;;;;;;6196471;23;20511;-78
2022/08/14 09:29:00;;;;;;;0.60;0.60;;;25.70;98.80;;;;;;6240054;23;20026;-77
2022/08/14 09:31:29;;;;;;;0.70;0.60;;;25.80;97.70;;;;;;6237895;23;20359;-78
2022/08/14 09:34:33;;;;;;;0.50;0.50;;;25.90;97.80;;;;;;6192546;23;20046;-78
2022/08/14 09:37:39;;;;;;;0.73;0.50;;;26.00;97.10;;;;;;6237782;23;20020;-78
2022/08/14 09:40:25;;;;;;;0.80;0.70;;;26.20;95.70;;;;;;6239127;23;20056;-78
2022/08/14 09:43:17;;;;;;;0.50;0.50;;;26.40;95.10;;;;;;6240228;23;20023;-78
2022/08/14 09:45:48;;;;;;;;;;;26.60;95.20;;;;;;6190002;23;20070;-77
2022/08/14 09:48:21;;;;;;;0.90;0.60;;;26.70;95.10;;;;;;6239752;23;19916;-77
2022/08/14 09:50:57;;;;;;;0.60;0.50;;;26.90;94.70;;;;;;6214622;23;20020;-77
2022/08/14 09:53:43;;;;;;;0.50;0.50;;;27.00;94.20;;;;;;6239538;23;20602;-77
2022/08/14 09:56:29;;;;;;;0.77;0.60;;;27.10;93.60;;;;;;6238802;23;20142;-78
2022/08/14 09:59:12;;;;;;;0.50;0.50;;;27.20;93.80;;;;;;6189061;23;20070;-78
2022/08/14 10:01:42;;;;;;;0.70;0.70;;;27.40;93.90;;;;;;6190863;23;20476;-77
2022/08/14 10:04:25;;;;;;;0.80;0.60;;;27.50;93.30;;;;;;6238576;23;20052;-77
2022/08/14 10:07:01;;;;;;;1.00;0.82;;;27.60;92.80;;;;;;6239308;23;20024;-78
2022/08/14 10:09:29;;;;;;;0.60;0.60;;;27.70;92.60;;;;;;6188032;23;20444;-78
2022/08/14 10:12:01;;;;;;;0.68;0.63;;;27.70;91.50;;;;;;6190089;23;20058;-77
2022/08/14 10:14:32;;;;;;;0.40;0.40;;;27.80;91.00;;;;;;6238566;23;20020;-78
2022/08/14 10:17:03;;;;;;;0.53;0.53;;;27.90;90.90;;;;;;6213136;23;20091;-77
2022/08/14 10:19:33;;;;;;;0.70;0.70;;;28.00;90.60;;;;;;6189184;23;20183;-78
2022/08/14 10:22:07;;;;;;;0.40;0.40;;;28.10;90.20;;;;;;6209809;23;20537;-78
2022/08/14 10:24:54;;;;;;;0.80;0.60;;;28.20;90.60;;;;;;6234849;23;20102;-78
2022/08/14 10:27:23;;;;;;;0.93;0.50;;;28.30;89.00;;;;;;6237946;23;20024;-77
2022/08/14 10:29:55;;;;;;;0.60;0.60;;;28.40;87.40;;;;;;6234053;23;20035;-79
2022/08/14 10:32:24;;;;;;;0.73;0.60;;;28.50;86.30;;;;;;6209340;23;20034;-78
2022/08/14 10:35:04;;;;;;;0.70;0.60;;;28.60;86.50;;;;;;6210149;23;20020;-78
2022/08/14 10:37:41;;;;;;;0.60;0.57;;;28.70;85.40;;;;;;6234875;23;20067;-78
2022/08/14 10:40:11;;;;;;;0.73;0.73;;;28.90;83.80;;;;;;6208924;23;20039;-78
2022/08/14 10:42:58;;;;;;;0.57;0.57;;;28.90;84.20;;;;;;6234999;23;20023;-77
2022/08/14 10:45:30;;;;;;;0.85;0.65;;;29.00;83.80;;;;;;6233839;23;20066;-78
2022/08/14 10:48:01;;;;;;;0.50;0.50;;;29.20;81.80;;;;;;6235067;23;20086;-77
2022/08/14 10:50:50;;;;;;;0.43;0.43;;;29.30;81.50;;;;;;6212311;23;20020;-78
2022/08/14 10:53:28;;;;;;;0.65;0.63;;;29.40;79.60;;;;;;6184766;23;20020;-78
2022/08/14 10:55:59;;;;;;;0.80;0.60;;;29.50;80.00;;;;;;6209011;23;20455;-78
2022/08/14 10:58:30;;;;;;;0.47;0.47;;;29.60;78.60;;;;;;6209788;23;20024;-78
2022/08/14 11:01:04;;;;;;;0.40;0.40;;;29.70;78.80;;;;;;6207719;23;20047;-77
2022/08/14 11:03:41;;;;;;;0.68;0.50;;;29.80;76.20;;;;;;6234651;23;20020;-78
2022/08/14 11:06:23;;;;;;;0.40;0.40;;;29.90;75.00;;;;;;6189290;23;20016;-77
2022/08/14 11:08:51;;;;;;;0.70;0.55;;;30.00;73.70;;;;;;6208265;23;20355;-78
2022/08/14 11:11:21;;;;;;;0.40;0.40;;;30.10;73.50;;;;;;6184438;23;20024;-78
2022/08/14 11:13:49;;;;;;;0.50;0.50;;;30.20;74.00;;;;;;6209474;23;20024;-78
2022/08/14 11:16:17;;;;;;;0.52;0.52;;;30.20;72.70;;;;;;6207632;23;20031;-77
2022/08/14 11:18:47;;;;;;;0.63;0.57;;;30.30;74.50;;;;;;6208868;23;20380;-78
2022/08/14 11:21:21;;;;;;;0.67;0.50;;;30.30;70.70;;;;;;6208596;23;20020;-77
2022/08/14 11:23:48;;;;;;;0.73;0.60;;;30.40;68.40;;;;;;6209135;23;20248;-78
2022/08/14 11:26:19;;;;;;;0.63;0.40;;;30.50;67.50;;;;;;6209092;23;20055;-77
2022/08/14 11:28:48;;;;;;;0.52;0.40;;;30.60;67.40;;;;;;6183835;23;20054;-78
2022/08/14 11:31:22;;;;;;;0.47;0.47;;;30.80;66.60;;;;;;6207307;23;20286;-78
2022/08/14 11:33:54;;;;;;;0.52;0.43;;;30.80;63.70;;;;;;6234896;23;20027;-78
2022/08/14 11:36:21;;;;;;;;;;;30.90;64.00;;;;;;6209811;23;20028;-78
2022/08/14 11:38:48;;;;;;;0.47;0.47;;;31.00;62.40;;;;;;6207940;23;19916;-78
2022/08/14 11:41:17;;;;;;;0.22;0.22;;;31.10;62.10;;;;;;6208881;23;20501;-78
2022/08/14 11:43:45;;;;;;;0.32;0.32;;;31.20;62.30;;;;;;6234610;23;20028;-78
2022/08/14 11:46:25;;;;;;;0.28;0.28;;;31.40;63.40;;;;;;6234358;23;20115;-80
2022/08/14 11:49:03;;;;;;;0.70;0.47;;;31.30;61.40;;;;;;6188418;23;20312;-78
2022/08/14 11:51:33;;;;;;;0.65;0.50;;;31.20;60.80;;;;;;6208720;23;20016;-78
2022/08/14 11:54:18;;;;;;;0.47;0.47;;;31.30;59.50;;;;;;6212850;23;20661;-79
2022/08/14 11:56:48;;;;;;;0.60;0.60;;;31.50;59.40;;;;;;6209860;23;20028;-78
2022/08/14 11:59:17;;;;;;;0.75;0.75;;;31.70;59.60;;;;;;6237082;23;20094;-79
2022/08/14 12:01:47;;;;;;;0.95;0.60;;;31.90;59.90;;;;;;6235717;23;20016;-78
2022/08/14 12:04:18;;;;;;;0.50;0.50;;;32.20;59.40;;;;;;6236531;23;20028;-78
2022/08/14 12:06:59;;;;;;;0.60;0.60;;;32.40;58.00;;;;;;6236007;23;20024;-78
2022/08/14 12:09:37;;;;;;;0.98;0.50;;;32.70;58.50;;;;;;6209944;23;20603;-79
2022/08/14 12:12:20;;;;;;;0.30;0.30;;;33.10;56.00;;;;;;6210892;23;20028;-78
2022/08/14 12:15:07;;;;;;;0.38;0.38;;;33.50;55.90;;;;;;6213191;23;20030;-78
2022/08/14 12:17:47;;;;;;;0.40;0.40;;;33.90;55.50;;;;;;6237828;23;20020;-78
2022/08/14 12:20:15;;;;;;;0.43;0.43;;;34.20;54.70;;;;;;6235121;23;20477;-79
2022/08/14 12:22:59;;;;;;;0.60;0.50;;;34.50;55.70;;;;;;6236540;23;20028;-80
2022/08/14 12:25:26;;;;;;;0.40;0.40;;;35.00;54.90;;;;;;6209939;23;20078;-79
2022/08/14 12:27:55;;;;;;;0.40;0.40;;;35.20;53.60;;;;;;6210931;23;20390;-79
2022/08/14 12:30:29;;;;;;;0.22;0.22;;;35.60;52.90;;;;;;6210461;23;20091;-79
2022/08/14 12:33:21;;;;;;;0.43;0.40;;;35.70;51.70;;;;;;6236181;23;20081;-79
2022/08/14 12:35:52;;;;;;;0.40;0.40;;;35.80;50.70;;;;;;6210854;23;20028;-79
2022/08/14 12:38:44;;;;;;;0.30;0.30;;;35.90;50.10;;;;;;6210766;23;20024;-78
2022/08/14 12:41:13;;;;;;;0.30;0.30;;;35.90;48.90;;;;;;6211263;23;20024;-78
2022/08/14 12:43:50;;;;;;;0.50;0.50;;;36.00;48.70;;;;;;6236350;23;20026;-79
2022/08/14 12:46:26;;;;;;;0.25;0.25;;;36.00;48.10;;;;;;6234640;23;20032;-78
2022/08/14 12:49:15;;;;;;;0.40;0.40;;;36.20;48.90;;;;;;6209351;23;20295;-80
2022/08/14 12:51:54;;;;;;;0.52;0.52;;;36.20;48.00;;;;;;6208328;23;20028;-77
2022/08/14 12:54:20;;;;;;;0.28;0.28;;;36.40;47.30;;;;;;6236063;23;20095;-78
2022/08/14 12:57:12;;;;;;;0.65;0.50;;;36.50;47.10;;;;;;6235853;23;20024;-79
2022/08/14 12:59:45;;;;;;;1.27;0.70;;;36.60;47.20;;;;;;6209541;23;20103;-79
2022/08/14 13:02:22;;;;;;;0.57;0.57;;;36.80;46.90;;;;;;6210141;23;20249;-78
2022/08/14 13:04:56;;;;;;;0.50;0.50;;;37.00;46.80;;;;;;6234659;23;20024;-79
2022/08/14 13:07:27;;;;;;;0.40;0.40;;;37.00;45.60;;;;;;6235291;23;20506;-78
2022/08/14 13:09:58;;;;;;;0.52;0.52;;;37.20;45.30;;;;;;6210732;23;20024;-78
2022/08/14 13:12:27;;;;;;;0.60;0.60;;;37.20;46.40;;;;;;6236055;23;20024;-77
2022/08/14 13:15:12;;;;;;;0.60;0.55;;;37.00;45.60;;;;;;6211906;23;20028;-78
2022/08/14 13:17:46;;;;;;;0.40;0.40;;;37.00;44.60;;;;;;6236020;23;20066;-79
2022/08/14 13:20:21;;;;;;;0.50;0.50;;;37.40;45.80;;;;;;6235153;23;20024;-79
2022/08/14 13:22:51;;;;;;;0.30;0.30;;;37.90;46.20;;;;;;6185501;23;20023;-79
2022/08/14 13:25:20;;;;;;;1.70;0.40;;;37.80;44.90;;;;;;6209560;23;20024;-79
2022/08/14 13:27:49;;;;;;;0.40;0.40;;;38.00;44.80;;;;;;6236266;23;20020;-80
2022/08/14 13:30:22;;;;;;;0.40;0.40;;;38.20;43.90;;;;;;6208961;23;20031;-79
2022/08/14 13:32:53;;;;;;;0.65;0.63;;;38.20;44.10;;;;;;6235117;23;20024;-79
2022/08/14 13:35:23;;;;;;;0.75;0.70;;;38.30;44.30;;;;;;6209351;23;20024;-79
2022/08/14 13:37:50;;;;;;;0.60;0.60;;;38.40;44.10;;;;;;6208726;23;20028;-79
2022/08/14 13:40:21;;;;;;;0.60;0.60;;;38.60;43.80;;;;;;6184936;23;20024;-79
2022/08/14 13:42:54;;;;;;;2.05;0.68;;;39.00;43.70;;;;;;6236038;23;20078;-80
2022/08/14 13:45:25;;;;;;;0.53;0.50;;;39.00;43.30;;;;;;6233879;23;20123;-78
2022/08/14 13:48:12;;;;;;;0.60;0.50;;;39.10;43.80;;;;;;6213446;23;20020;-80
2022/08/14 13:50:58;;;;;;;0.52;0.40;;;39.50;43.00;;;;;;6235489;23;20038;-79
2022/08/14 13:53:28;;;;;;;0.82;0.50;;;39.80;42.60;;;;;;6234804;23;20086;-79
2022/08/14 13:55:59;;;;;;;0.38;0.38;;;39.80;42.30;;;;;;6210131;23;20020;-78
2022/08/14 13:58:26;;;;;;;0.30;0.30;;;40.00;41.80;;;;;;6235732;23;20024;-81
2022/08/14 14:00:59;;;;;;;0.30;0.30;;;40.30;41.80;;;;;;6185817;23;20032;-79
2022/08/14 14:03:26;;;;;;;1.00;0.35;;;40.70;41.60;;;;;;6183925;23;20030;-80
2022/08/14 14:05:57;;;;;;;0.17;0.17;;;41.00;41.30;;;;;;6185409;23;20023;-79
2022/08/14 14:08:24;;;;;;;0.90;0.22;;;41.40;40.70;;;;;;6235095;23;20055;-78
2022/08/14 14:11:12;;;;;;;0.30;0.30;;;41.60;40.50;;;;;;6192176;23;20020;-79
2022/08/14 14:13:41;;;;;;;0.50;0.50;;;41.70;39.80;;;;;;6235611;23;20247;-79
2022/08/14 14:16:11;;;;;;;0.20;0.20;;;41.30;40.30;;;;;;6207577;23;20030;-78
2022/08/14 14:18:42;;;;;;;0.30;0.30;;;41.40;40.40;;;;;;6184539;23;20027;-79
2022/08/14 14:21:11;;;;;;;0.57;0.45;;;41.20;40.00;;;;;;6209569;23;20058;-78
2022/08/14 14:23:40;;;;;;;0.20;0.20;;;41.40;39.20;;;;;;6208416;23;20024;-79
2022/08/14 14:26:07;;;;;;;0.63;0.40;;;41.20;39.70;;;;;;6183887;23;20039;-79
2022/08/14 14:28:40;;;;;;;0.30;0.30;;;40.70;39.70;;;;;;6210054;23;20020;-78
2022/08/14 14:31:08;;;;;;;0.20;0.20;;;40.20;40.50;;;;;;6182925;23;20044;-78
2022/08/14 14:33:35;;;;;;;0.20;0.20;;;40.10;41.60;;;;;;6183354;23;20020;-80
2022/08/14 14:36:25;;;;;;;0.30;0.30;;;40.50;41.00;;;;;;6212542;23;20020;-78
2022/08/14 14:38:56;;;;;;;0.38;0.38;;;40.50;40.40;;;;;;6234860;23;20466;-79
2022/08/14 14:41:24;;;;;;;0.20;0.20;;;40.20;40.20;;;;;;6235197;23;20024;-79
2022/08/14 14:43:51;;;;;;;0.20;0.20;;;39.90;40.80;;;;;;6208675;23;20031;-79
2022/08/14 14:46:20;;;;;;;0.30;0.30;;;39.50;40.70;;;;;;6207627;23;20020;-79
2022/08/14 14:49:03;;;;;;;0.30;0.30;;;39.40;40.90;;;;;;6234983;23;20027;-79
2022/08/14 14:51:30;;;;;;;0.40;0.30;;;39.20;41.50;;;;;;6207718;23;20024;-79
2022/08/14 14:53:57;;;;;;;0.50;0.47;;;39.30;42.60;;;;;;6234143;23;20521;-79
2022/08/14 14:56:24;;;;;;;0.40;0.40;;;39.30;42.60;;;;;;6234771;23;20490;-78
2022/08/14 14:59:11;;;;;;;0.68;0.50;;;39.40;42.70;;;;;;6212757;23;20103;-78
2022/08/14 15:01:38;;;;;;;0.20;0.20;;;38.70;41.70;;;;;;6234186;23;20028;-79
2022/08/14 15:04:08;;;;;;;0.47;0.40;;;38.20;41.70;;;;;;6183752;23;20020;-78
2022/08/14 15:06:46;;;;;;;0.60;0.40;;;37.70;42.90;;;;;;6209856;23;20024;-78
2022/08/14 15:09:13;;;;;;;1.30;0.43;;;37.20;43.50;;;;;;6234897;23;20032;-77
2022/08/14 15:11:44;;;;;;;0.43;0.40;;;36.90;43.30;;;;;;6209313;23;20071;-78
2022/08/14 15:14:13;;;;;;;0.88;0.50;;;36.90;43.60;;;;;;6235221;23;20062;-77
2022/08/14 15:17:00;;;;;;;0.30;0.30;;;37.00;43.80;;;;;;6234266;23;20020;-77
2022/08/14 15:19:27;;;;;;;0.40;0.40;;;36.90;44.20;;;;;;6233630;23;20035;-79
2022/08/14 15:21:54;;;;;;;0.35;0.35;;;36.80;43.20;;;;;;6207803;23;20390;-79
2022/08/14 15:24:21;;;;;;;0.40;0.40;;;36.80;43.70;;;;;;6234669;23;20055;-79
2022/08/14 15:26:53;;;;;;;0.40;0.40;;;37.50;43.40;;;;;;6235420;23;20052;-79
2022/08/14 15:29:19;;;;;;;0.38;0.38;;;37.90;42.90;;;;;;6183984;23;20320;-79
2022/08/14 15:31:46;;;;;;;0.40;0.40;;;38.30;41.90;;;;;;6236418;23;20099;-79
2022/08/14 15:34:13;;;;;;;0.20;0.20;;;38.60;41.20;;;;;;6236997;23;20024;-79
2022/08/14 15:37:04;;;;;;;0.30;0.30;;;39.20;41.30;;;;;;6236303;23;20024;-79
2022/08/14 15:39:33;;;;;;;0.20;0.20;;;39.30;41.30;;;;;;6210996;23;20020;-79
2022/08/14 15:42:04;;;;;;;0.32;0.32;;;39.30;41.80;;;;;;6210490;23;20103;-79
2022/08/14 15:44:41;;;;;;;0.30;0.30;;;39.10;43.00;;;;;;6211451;23;20078;-78
2022/08/14 15:47:24;;;;;;;0.30;0.30;;;38.70;42.90;;;;;;6236300;23;20089;-78
2022/08/14 15:49:57;;;;;;;0.40;0.40;;;38.20;43.90;;;;;;6235959;23;20024;-78
2022/08/14 15:52:25;;;;;;;1.55;0.30;;;37.60;44.20;;;;;;6236813;23;20046;-78
2022/08/14 15:55:03;;;;;;;0.30;0.30;;;37.00;45.00;;;;;;6236577;23;20028;-79
2022/08/14 15:57:31;;;;;;;0.40;0.40;;;36.50;45.20;;;;;;6186336;23;20020;-79
2022/08/14 16:03:04;;;;;;;0.30;0.30;;;35.60;45.80;;;;;;6236236;23;20086;-79
2022/08/14 16:05:35;;;;;;;0.60;0.50;;;35.30;46.30;;;;;;6236309;23;20400;-78
2022/08/14 16:08:07;;;;;;;0.55;0.40;;;34.90;46.60;;;;;;6235978;23;20740;-79
2022/08/14 16:10:54;;;;;;;0.30;0.30;;;34.70;47.20;;;;;;6193774;23;20095;-78
2022/08/14 16:13:21;;;;;;;0.20;0.20;;;34.50;47.90;;;;;;6236590;23;20466;-79
2022/08/14 16:16:22;;;;;;;0.40;0.40;;;34.30;47.90;;;;;;6212439;23;20026;-78
2022/08/14 16:19:09;;;;;;;0.43;0.43;;;34.10;48.30;;;;;;6213758;23;20100;-77
2022/08/14 16:21:40;;;;;;;0.50;0.50;;;33.80;48.70;;;;;;6185522;23;20246;-78
2022/08/14 16:24:29;;;;;;;0.40;0.40;;;33.50;48.00;;;;;;6214049;23;20095;-79
2022/08/14 16:26:57;;;;;;;0.30;0.30;;;33.30;48.00;;;;;;6210150;23;20062;-78
2022/08/14 16:29:28;;;;;;;0.50;0.50;;;33.10;48.80;;;;;;6236333;23;20028;-77
2022/08/14 16:31:59;;;;;;;0.30;0.30;;;33.10;49.10;;;;;;6209897;23;20028;-77
2022/08/14 16:34:47;;;;;;;0.32;0.32;;;33.10;48.30;;;;;;6213796;23;20096;-78
2022/08/14 16:37:20;;;;;;;0.30;0.30;;;33.10;49.30;;;;;;6187868;23;20579;-78
2022/08/14 16:39:48;;;;;;;0.32;0.32;;;33.10;48.60;;;;;;6209595;23;20024;-78
2022/08/14 16:42:19;;;;;;;0.40;0.40;;;33.20;48.90;;;;;;6210915;23;20024;-79
2022/08/14 16:45:09;;;;;;;0.30;0.30;;;33.30;48.80;;;;;;6192040;23;20016;-79
2022/08/14 16:47:36;;;;;;;0.68;0.60;;;33.40;48.90;;;;;;6235978;23;20027;-77
2022/08/14 16:50:07;;;;;;;0.57;0.57;;;33.30;49.00;;;;;;6210061;23;20028;-79
2022/08/14 16:52:35;;;;;;;0.65;0.60;;;33.10;49.20;;;;;;6235669;23;20067;-77
2022/08/14 16:55:20;;;;;;;0.50;0.50;;;33.10;49.70;;;;;;6212873;23;20533;-78
2022/08/14 16:57:47;;;;;;;0.40;0.40;;;33.10;49.90;;;;;;6209391;23;20024;-78
2022/08/14 17:00:45;;;;;;;0.30;0.30;;;33.10;49.90;;;;;;6234554;23;20031;-79
2022/08/14 17:03:15;;;;;;;1.05;0.30;;;33.00;50.00;;;;;;6208260;23;20020;-78
2022/08/14 17:05:42;;;;;;;0.32;0.30;;;32.80;49.90;;;;;;6235989;23;20368;-78
2022/08/14 17:08:17;;;;;;;0.57;0.40;;;32.80;50.50;;;;;;6236232;23;20373;-76
2022/08/14 17:11:01;;;;;;;0.40;0.40;;;32.50;50.50;;;;;;6236600;23;20267;-77
2022/08/14 17:13:36;;;;;;;0.47;0.45;;;32.40;51.10;;;;;;6165991;23;20098;-78
2022/08/14 17:16:23;;;;;;;0.35;0.28;;;32.30;51.30;;;;;;6235340;23;20020;-77
2022/08/14 17:18:56;;;;;;;0.40;0.40;;;32.20;51.00;;;;;;6235724;23;20055;-78
2022/08/14 17:21:36;;;;;;;0.40;0.32;;;32.10;51.60;;;;;;6210086;23;20320;-79
2022/08/14 17:24:11;;;;;;;0.30;0.30;;;32.00;51.50;;;;;;6210661;23;20078;-77
2022/08/14 17:27:00;;;;;;;0.40;0.40;;;31.90;51.50;;;;;;6235474;23;20020;-76
2022/08/14 17:29:32;;;;;;;0.35;0.35;;;31.80;51.90;;;;;;6234997;23;20035;-78
2022/08/14 17:32:11;;;;;;;0.50;0.47;;;31.80;51.50;;;;;;6235137;23;20028;-76
2022/08/14 17:34:55;;;;;;;0.47;0.40;;;31.80;52.00;;;;;;6212482;23;20074;-78
2022/08/14 17:37:36;;;;;;;;;;;31.70;52.10;;;;;;6209976;23;20511;-77
2022/08/14 17:40:07;;;;;;;0.38;0.38;;;31.70;52.20;;;;;;6208664;23;19916;-78
2022/08/14 17:42:45;;;;;;;0.30;0.30;;;31.70;51.50;;;;;;6236116;23;20024;-78
2022/08/14 17:45:22;;;;;;;0.40;0.32;;;31.70;50.90;;;;;;6233956;23;20023;-77